sensor_id;sensor_type;location;lat;lon;timestamp;pressure;altitude;pressure_sealevel;temperature;humidity
66857;BME280;53766;50.280;19.160;2023-05-25T00:01:46;98974.88;;;19.01;52.14
66857;BME280;53766;50.280;19.160;2023-05-25T00:04:15;98982.06;;;19.00;52.16
66857;BME280;53766;50.280;19.160;2023-05-25T00:06:46;98975.09;;;18.99;52.21
66857;BME280;53766;50.280;19.160;2023-05-25T00:09:13;98974.25;;;18.99;52.12
66857;BME280;53766;50.280;19.160;2023-05-25T00:11:41;98975.09;;;18.99;52.25
66857;BME280;53766;50.280;19.160;2023-05-25T00:14:08;98974.25;;;18.99;52.21
66857;BME280;53766;50.280;19.160;2023-05-25T00:16:36;98974.25;;;18.99;52.20
66857;BME280;53766;50.280;19.160;2023-05-25T00:19:05;98980.44;;;18.99;52.08
66857;BME280;53766;50.280;19.160;2023-05-25T00:21:42;98973.44;;;18.98;52.15
66857;BME280;53766;50.280;19.160;2023-05-25T00:24:10;98974.25;;;18.99;52.03
66857;BME280;53766;50.280;19.160;2023-05-25T00:26:37;98977.13;;;18.97;52.25
66857;BME280;53766;50.280;19.160;2023-05-25T00:29:05;98976.31;;;18.97;52.16
66857;BME280;53766;50.280;19.160;2023-05-25T00:31:33;98981.66;;;18.97;52.15
66857;BME280;53766;50.280;19.160;2023-05-25T00:34:03;98985.16;;;18.97;52.03
66857;BME280;53766;50.280;19.160;2023-05-25T00:36:30;98976.31;;;18.97;52.31
66857;BME280;53766;50.280;19.160;2023-05-25T00:38:57;98981.66;;;18.97;52.25
66857;BME280;53766;50.280;19.160;2023-05-25T00:41:25;98981.66;;;18.97;52.32
66857;BME280;53766;50.280;19.160;2023-05-25T00:43:53;98981.66;;;18.97;52.18
66857;BME280;53766;50.280;19.160;2023-05-25T00:46:22;98977.31;;;18.96;52.03
66857;BME280;53766;50.280;19.160;2023-05-25T00:48:53;98978.34;;;18.95;52.18
66857;BME280;53766;50.280;19.160;2023-05-25T00:51:23;98980.00;;;18.96;52.23
66857;BME280;53766;50.280;19.160;2023-05-25T00:53:52;98974.84;;;18.94;52.08
66857;BME280;53766;50.280;19.160;2023-05-25T00:56:29;98989.84;;;18.95;52.09
66857;BME280;53766;50.280;19.160;2023-05-25T00:58:59;98983.69;;;18.95;52.13
66857;BME280;53766;50.280;19.160;2023-05-25T01:01:32;98978.34;;;18.95;52.06
66857;BME280;53766;50.280;19.160;2023-05-25T01:04:07;98976.69;;;18.94;52.20
66857;BME280;53766;50.280;19.160;2023-05-25T01:06:37;98977.31;;;18.96;52.15
66857;BME280;53766;50.280;19.160;2023-05-25T01:09:07;98978.34;;;18.95;52.12
66857;BME280;53766;50.280;19.160;2023-05-25T01:11:39;98975.88;;;18.93;52.10
66857;BME280;53766;50.280;19.160;2023-05-25T01:14:08;98976.69;;;18.94;52.16
66857;BME280;53766;50.280;19.160;2023-05-25T01:16:36;98981.22;;;18.93;52.27
66857;BME280;53766;50.280;19.160;2023-05-25T01:19:05;98985.72;;;18.93;52.14
66857;BME280;53766;50.280;19.160;2023-05-25T01:21:41;98992.88;;;18.92;52.16
66857;BME280;53766;50.280;19.160;2023-05-25T01:24:24;98992.69;;;18.94;52.05
66857;BME280;53766;50.280;19.160;2023-05-25T01:27:05;99000.91;;;18.92;52.09
66857;BME280;53766;50.280;19.160;2023-05-25T01:29:36;98986.72;;;18.91;52.23
66857;BME280;53766;50.280;19.160;2023-05-25T01:32:07;98985.91;;;18.91;52.18
66857;BME280;53766;50.280;19.160;2023-05-25T01:34:36;98994.75;;;18.91;52.24
66857;BME280;53766;50.280;19.160;2023-05-25T01:37:04;98993.91;;;18.91;52.06
66857;BME280;53766;50.280;19.160;2023-05-25T01:39:32;98998.44;;;18.90;51.99
66857;BME280;53766;50.280;19.160;2023-05-25T01:41:59;98995.78;;;18.90;52.21
66857;BME280;53766;50.280;19.160;2023-05-25T01:44:28;98998.44;;;18.90;52.05
66857;BME280;53766;50.280;19.160;2023-05-25T01:47:06;98993.09;;;18.90;52.22
66857;BME280;53766;50.280;19.160;2023-05-25T01:49:41;98988.78;;;18.89;52.11
66857;BME280;53766;50.280;19.160;2023-05-25T01:52:22;98989.59;;;18.90;51.83
66857;BME280;53766;50.280;19.160;2023-05-25T01:54:59;98983.44;;;18.89;52.16
66857;BME280;53766;50.280;19.160;2023-05-25T01:57:27;98991.44;;;18.89;52.20
66857;BME280;53766;50.280;19.160;2023-05-25T01:59:55;98983.44;;;18.89;52.04
66857;BME280;53766;50.280;19.160;2023-05-25T02:02:30;98981.78;;;18.88;52.15
66857;BME280;53766;50.280;19.160;2023-05-25T02:04:59;98979.13;;;18.88;52.00
66857;BME280;53766;50.280;19.160;2023-05-25T02:07:27;98976.47;;;18.88;52.15
66857;BME280;53766;50.280;19.160;2023-05-25T02:09:54;98979.13;;;18.88;51.87
66857;BME280;53766;50.280;19.160;2023-05-25T02:12:22;98973.78;;;18.88;51.97
66857;BME280;53766;50.280;19.160;2023-05-25T02:14:49;98966.78;;;18.87;52.07
66857;BME280;53766;50.280;19.160;2023-05-25T02:17:17;98972.13;;;18.87;52.10
66857;BME280;53766;50.280;19.160;2023-05-25T02:19:45;98966.78;;;18.87;52.11
66857;BME280;53766;50.280;19.160;2023-05-25T02:22:15;98970.47;;;18.86;51.91
66857;BME280;53766;50.280;19.160;2023-05-25T02:24:43;98975.81;;;18.86;52.07
66857;BME280;53766;50.280;19.160;2023-05-25T02:27:10;98971.31;;;18.87;52.08
66857;BME280;53766;50.280;19.160;2023-05-25T02:29:39;98975.81;;;18.86;52.08
66857;BME280;53766;50.280;19.160;2023-05-25T02:32:07;98970.47;;;18.86;52.10
66857;BME280;53766;50.280;19.160;2023-05-25T02:34:34;98975.81;;;18.86;52.04
66857;BME280;53766;50.280;19.160;2023-05-25T02:37:01;98981.16;;;18.86;52.03
66857;BME280;53766;50.280;19.160;2023-05-25T02:39:29;98974.16;;;18.85;52.15
66857;BME280;53766;50.280;19.160;2023-05-25T02:41:56;98974.16;;;18.85;52.02
66857;BME280;53766;50.280;19.160;2023-05-25T02:44:24;98974.16;;;18.85;51.99
66857;BME280;53766;50.280;19.160;2023-05-25T02:46:51;98985.88;;;18.84;52.04
66857;BME280;53766;50.280;19.160;2023-05-25T02:49:19;98985.88;;;18.84;51.99
66857;BME280;53766;50.280;19.160;2023-05-25T02:51:46;98980.53;;;18.84;52.09
66857;BME280;53766;50.280;19.160;2023-05-25T02:54:14;98974.38;;;18.84;52.13
66857;BME280;53766;50.280;19.160;2023-05-25T02:56:41;98967.19;;;18.84;52.07
66857;BME280;53766;50.280;19.160;2023-05-25T02:59:08;98970.84;;;18.83;52.15
66857;BME280;53766;50.280;19.160;2023-05-25T03:01:36;98970.84;;;18.83;52.01
66857;BME280;53766;50.280;19.160;2023-05-25T03:04:04;98970.03;;;18.83;52.08
66857;BME280;53766;50.280;19.160;2023-05-25T03:06:31;98977.03;;;18.84;52.00
66857;BME280;53766;50.280;19.160;2023-05-25T03:08:59;98985.22;;;18.82;51.87
66857;BME280;53766;50.280;19.160;2023-05-25T03:11:27;98979.91;;;18.82;51.91
66857;BME280;53766;50.280;19.160;2023-05-25T03:13:54;98974.56;;;18.82;51.99
66857;BME280;53766;50.280;19.160;2023-05-25T03:16:22;98970.22;;;18.81;52.06
66857;BME280;53766;50.280;19.160;2023-05-25T03:18:50;98971.88;;;18.82;51.88
66857;BME280;53766;50.280;19.160;2023-05-25T03:21:17;98977.22;;;18.82;51.82
66857;BME280;53766;50.280;19.160;2023-05-25T03:23:45;98973.75;;;18.82;52.08
66857;BME280;53766;50.280;19.160;2023-05-25T03:26:13;98984.41;;;18.82;51.80
66857;BME280;53766;50.280;19.160;2023-05-25T03:28:40;98983.56;;;18.81;51.81
66857;BME280;53766;50.280;19.160;2023-05-25T03:31:07;98972.91;;;18.81;52.06
66857;BME280;53766;50.280;19.160;2023-05-25T03:33:35;98978.22;;;18.81;52.04
66857;BME280;53766;50.280;19.160;2023-05-25T03:36:08;98971.25;;;18.80;51.88
66857;BME280;53766;50.280;19.160;2023-05-25T03:38:37;98975.78;;;18.80;51.92
66857;BME280;53766;50.280;19.160;2023-05-25T03:41:04;98980.09;;;18.81;51.97
66857;BME280;53766;50.280;19.160;2023-05-25T03:43:32;98984.59;;;18.80;51.92
66857;BME280;53766;50.280;19.160;2023-05-25T03:46:00;98978.44;;;18.80;51.94
66857;BME280;53766;50.280;19.160;2023-05-25T03:48:27;98992.59;;;18.80;51.77
66857;BME280;53766;50.280;19.160;2023-05-25T03:50:54;98982.97;;;18.79;51.96
66857;BME280;53766;50.280;19.160;2023-05-25T03:53:22;98989.13;;;18.80;51.91
66857;BME280;53766;50.280;19.160;2023-05-25T03:55:50;98990.97;;;18.79;52.01
66857;BME280;53766;50.280;19.160;2023-05-25T03:58:18;98998.75;;;18.81;51.86
66857;BME280;53766;50.280;19.160;2023-05-25T04:00:46;98996.31;;;18.79;51.89
66857;BME280;53766;50.280;19.160;2023-05-25T04:03:17;98995.47;;;18.79;51.89
66857;BME280;53766;50.280;19.160;2023-05-25T04:05:45;98997.31;;;18.78;51.90
66857;BME280;53766;50.280;19.160;2023-05-25T04:08:14;98999.97;;;18.78;51.92
66857;BME280;53766;50.280;19.160;2023-05-25T04:10:45;99001.63;;;18.79;51.77
66857;BME280;53766;50.280;19.160;2023-05-25T04:13:13;99001.63;;;18.79;51.99
66857;BME280;53766;50.280;19.160;2023-05-25T04:15:41;99001.63;;;18.79;52.04
66857;BME280;53766;50.280;19.160;2023-05-25T04:18:08;99006.97;;;18.79;51.88
66857;BME280;53766;50.280;19.160;2023-05-25T04:20:36;99003.66;;;18.77;51.85
66857;BME280;53766;50.280;19.160;2023-05-25T04:23:04;99005.31;;;18.78;51.90
66857;BME280;53766;50.280;19.160;2023-05-25T04:25:31;99008.97;;;18.77;51.86
66857;BME280;53766;50.280;19.160;2023-05-25T04:27:59;99014.31;;;18.77;51.84
66857;BME280;53766;50.280;19.160;2023-05-25T04:30:26;99008.97;;;18.77;51.73
66857;BME280;53766;50.280;19.160;2023-05-25T04:32:54;99014.31;;;18.77;51.85
66857;BME280;53766;50.280;19.160;2023-05-25T04:35:23;99014.31;;;18.77;51.73
66857;BME280;53766;50.280;19.160;2023-05-25T04:37:52;99012.66;;;18.76;51.81
66857;BME280;53766;50.280;19.160;2023-05-25T04:40:20;99013.47;;;18.77;51.76
66857;BME280;53766;50.280;19.160;2023-05-25T04:42:48;99018.00;;;18.76;51.88
66857;BME280;53766;50.280;19.160;2023-05-25T04:45:15;99025.00;;;18.77;51.72
66857;BME280;53766;50.280;19.160;2023-05-25T04:47:43;99028.66;;;18.76;51.87
66857;BME280;53766;50.280;19.160;2023-05-25T04:50:12;99027.03;;;18.75;51.84
66857;BME280;53766;50.280;19.160;2023-05-25T04:52:40;99028.66;;;18.76;51.71
66857;BME280;53766;50.280;19.160;2023-05-25T04:55:07;99033.19;;;18.76;51.79
66857;BME280;53766;50.280;19.160;2023-05-25T04:57:35;99034.00;;;18.76;51.79
66857;BME280;53766;50.280;19.160;2023-05-25T05:00:03;99027.03;;;18.75;51.83
66857;BME280;53766;50.280;19.160;2023-05-25T05:02:32;99022.50;;;18.76;51.80
66857;BME280;53766;50.280;19.160;2023-05-25T05:04:59;99033.38;;;18.74;51.77
66857;BME280;53766;50.280;19.160;2023-05-25T05:07:27;99037.69;;;18.75;51.94
66857;BME280;53766;50.280;19.160;2023-05-25T05:09:55;99037.69;;;18.75;51.71
66857;BME280;53766;50.280;19.160;2023-05-25T05:12:22;99032.38;;;18.75;51.58
66857;BME280;53766;50.280;19.160;2023-05-25T05:14:50;99036.03;;;18.74;51.81
66857;BME280;53766;50.280;19.160;2023-05-25T05:17:17;99032.38;;;18.75;51.81
66857;BME280;53766;50.280;19.160;2023-05-25T05:19:45;99030.69;;;18.74;51.82
66857;BME280;53766;50.280;19.160;2023-05-25T05:22:12;99041.38;;;18.74;51.74
66857;BME280;53766;50.280;19.160;2023-05-25T05:24:42;99044.03;;;18.74;51.82
66857;BME280;53766;50.280;19.160;2023-05-25T05:27:11;99046.69;;;18.74;51.67
66857;BME280;53766;50.280;19.160;2023-05-25T05:29:40;99050.41;;;18.73;51.64
66857;BME280;53766;50.280;19.160;2023-05-25T05:32:08;99052.03;;;18.74;51.63
66857;BME280;53766;50.280;19.160;2023-05-25T05:34:36;99051.22;;;18.74;51.76
66857;BME280;53766;50.280;19.160;2023-05-25T05:37:03;99054.06;;;18.72;51.69
66857;BME280;53766;50.280;19.160;2023-05-25T05:39:31;99055.91;;;18.71;51.73
66857;BME280;53766;50.280;19.160;2023-05-25T05:41:58;99054.06;;;18.72;51.67
66857;BME280;53766;50.280;19.160;2023-05-25T05:44:26;99057.78;;;18.71;51.43
66857;BME280;53766;50.280;19.160;2023-05-25T05:46:56;99069.44;;;18.70;51.46
66857;BME280;53766;50.280;19.160;2023-05-25T05:49:27;99067.81;;;18.69;51.36
66857;BME280;53766;50.280;19.160;2023-05-25T05:51:55;99073.16;;;18.69;51.22
66857;BME280;53766;50.280;19.160;2023-05-25T05:54:23;99068.81;;;18.68;51.24
66857;BME280;53766;50.280;19.160;2023-05-25T05:56:50;99072.50;;;18.67;50.86
66857;BME280;53766;50.280;19.160;2023-05-25T05:59:20;99069.19;;;18.65;51.00
66857;BME280;53766;50.280;19.160;2023-05-25T06:01:47;99074.53;;;18.65;51.00
66857;BME280;53766;50.280;19.160;2023-05-25T06:04:15;99072.88;;;18.64;50.86
66857;BME280;53766;50.280;19.160;2023-05-25T06:06:42;99079.22;;;18.63;50.63
66857;BME280;53766;50.280;19.160;2023-05-25T06:09:11;99077.59;;;18.62;50.51
66857;BME280;53766;50.280;19.160;2023-05-25T06:11:39;99079.41;;;18.61;50.58
66857;BME280;53766;50.280;19.160;2023-05-25T06:14:08;99082.09;;;18.61;50.57
66857;BME280;53766;50.280;19.160;2023-05-25T06:16:35;99085.59;;;18.62;50.45
66857;BME280;53766;50.280;19.160;2023-05-25T06:19:03;99083.94;;;18.61;50.62
66857;BME280;53766;50.280;19.160;2023-05-25T06:21:31;99088.44;;;18.60;50.58
66857;BME280;53766;50.280;19.160;2023-05-25T06:23:58;99087.63;;;18.60;50.39
66857;BME280;53766;50.280;19.160;2023-05-25T06:26:25;99093.97;;;18.59;50.42
66857;BME280;53766;50.280;19.160;2023-05-25T06:28:55;99096.63;;;18.59;50.83
66857;BME280;53766;50.280;19.160;2023-05-25T06:31:23;99100.34;;;18.58;50.55
66857;BME280;53766;50.280;19.160;2023-05-25T06:33:51;99095.00;;;18.58;50.33
66857;BME280;53766;50.280;19.160;2023-05-25T06:36:18;99096.00;;;18.57;50.21
66857;BME280;53766;50.280;19.160;2023-05-25T06:38:46;99097.03;;;18.56;50.15
66857;BME280;53766;50.280;19.160;2023-05-25T06:41:13;99100.34;;;18.58;50.33
66857;BME280;53766;50.280;19.160;2023-05-25T06:43:41;99099.69;;;18.56;50.29
66857;BME280;53766;50.280;19.160;2023-05-25T06:46:09;99100.69;;;18.55;50.29
66857;BME280;53766;50.280;19.160;2023-05-25T06:48:38;99095.34;;;18.55;50.19
66857;BME280;53766;50.280;19.160;2023-05-25T06:51:05;99109.50;;;18.55;50.09
66857;BME280;53766;50.280;19.160;2023-05-25T06:53:33;99111.56;;;18.53;50.09
66857;BME280;53766;50.280;19.160;2023-05-25T06:56:00;99111.34;;;18.55;50.24
66857;BME280;53766;50.280;19.160;2023-05-25T06:58:28;99106.03;;;18.55;50.35
66857;BME280;53766;50.280;19.160;2023-05-25T07:00:55;99102.72;;;18.53;50.27
66857;BME280;53766;50.280;19.160;2023-05-25T07:03:23;99108.06;;;18.53;50.12
66857;BME280;53766;50.280;19.160;2023-05-25T07:05:50;99106.22;;;18.53;50.24
66857;BME280;53766;50.280;19.160;2023-05-25T07:08:18;99102.72;;;18.53;50.30
66857;BME280;53766;50.280;19.160;2023-05-25T07:10:45;99113.38;;;18.53;50.12
66857;BME280;53766;50.280;19.160;2023-05-25T07:13:16;99115.22;;;18.52;50.03
66857;BME280;53766;50.280;19.160;2023-05-25T07:15:43;99111.75;;;18.52;50.18
66857;BME280;53766;50.280;19.160;2023-05-25T07:18:11;99116.25;;;18.51;50.44
66857;BME280;53766;50.280;19.160;2023-05-25T07:20:39;99123.41;;;18.50;50.10
66857;BME280;53766;50.280;19.160;2023-05-25T07:23:12;99120.75;;;18.50;50.04
66857;BME280;53766;50.280;19.160;2023-05-25T07:25:40;99133.09;;;18.52;50.10
66857;BME280;53766;50.280;19.160;2023-05-25T07:28:08;99121.59;;;18.51;50.10
66857;BME280;53766;50.280;19.160;2023-05-25T07:30:35;99126.09;;;18.50;49.97
66857;BME280;53766;50.280;19.160;2023-05-25T07:33:03;99121.59;;;18.51;49.98
66857;BME280;53766;50.280;19.160;2023-05-25T07:35:30;99126.94;;;18.51;50.11
66857;BME280;53766;50.280;19.160;2023-05-25T07:37:59;99132.28;;;18.51;50.05
66857;BME280;53766;50.280;19.160;2023-05-25T07:40:27;99129.59;;;18.51;50.08
66857;BME280;53766;50.280;19.160;2023-05-25T07:42:55;99126.09;;;18.50;50.26
66857;BME280;53766;50.280;19.160;2023-05-25T07:45:22;99134.09;;;18.50;50.07
66857;BME280;53766;50.280;19.160;2023-05-25T07:47:50;99135.75;;;18.52;50.12
66857;BME280;53766;50.280;19.160;2023-05-25T07:50:17;99133.09;;;18.52;50.09
66857;BME280;53766;50.280;19.160;2023-05-25T07:52:45;99138.41;;;18.52;50.17
66857;BME280;53766;50.280;19.160;2023-05-25T07:55:12;99136.75;;;18.50;50.06
66857;BME280;53766;50.280;19.160;2023-05-25T07:57:40;99138.41;;;18.52;50.21
66857;BME280;53766;50.280;19.160;2023-05-25T08:00:08;99142.09;;;18.50;50.23
66857;BME280;53766;50.280;19.160;2023-05-25T08:02:38;99140.28;;;18.51;50.13
66857;BME280;53766;50.280;19.160;2023-05-25T08:05:06;99141.28;;;18.50;49.98
66857;BME280;53766;50.280;19.160;2023-05-25T08:07:34;99136.75;;;18.50;50.06
66857;BME280;53766;50.280;19.160;2023-05-25T08:10:03;99137.78;;;18.49;50.17
66857;BME280;53766;50.280;19.160;2023-05-25T08:12:31;99131.63;;;18.49;50.05
66857;BME280;53766;50.280;19.160;2023-05-25T08:15:15;99140.44;;;18.49;50.02
66857;BME280;53766;50.280;19.160;2023-05-25T08:17:43;99129.78;;;18.49;50.08
66857;BME280;53766;50.280;19.160;2023-05-25T08:20:11;99130.78;;;18.48;50.05
66857;BME280;53766;50.280;19.160;2023-05-25T08:22:39;99127.94;;;18.50;50.00
66857;BME280;53766;50.280;19.160;2023-05-25T08:25:06;99132.44;;;18.49;50.06
66857;BME280;53766;50.280;19.160;2023-05-25T08:27:35;99131.81;;;18.47;50.05
66857;BME280;53766;50.280;19.160;2023-05-25T08:30:03;99133.44;;;18.48;49.97
66857;BME280;53766;50.280;19.160;2023-05-25T08:32:32;99137.78;;;18.49;50.00
66857;BME280;53766;50.280;19.160;2023-05-25T08:35:00;99136.09;;;18.48;50.02
66857;BME280;53766;50.280;19.160;2023-05-25T08:37:31;99128.09;;;18.48;49.94
66857;BME280;53766;50.280;19.160;2023-05-25T08:39:58;99135.13;;;18.49;49.98
66857;BME280;53766;50.280;19.160;2023-05-25T08:42:28;99138.78;;;18.48;49.99
66857;BME280;53766;50.280;19.160;2023-05-25T08:44:56;99137.78;;;18.49;50.13
66857;BME280;53766;50.280;19.160;2023-05-25T08:47:28;99134.28;;;18.49;50.02
66857;BME280;53766;50.280;19.160;2023-05-25T08:49:59;99137.78;;;18.49;50.00
66857;BME280;53766;50.280;19.160;2023-05-25T08:52:28;99140.44;;;18.49;50.07
66857;BME280;53766;50.280;19.160;2023-05-25T08:55:03;99144.13;;;18.48;49.84
66857;BME280;53766;50.280;19.160;2023-05-25T08:57:53;99144.13;;;18.48;50.07
66857;BME280;53766;50.280;19.160;2023-05-25T09:00:27;99133.44;;;18.48;49.97
66857;BME280;53766;50.280;19.160;2023-05-25T09:03:14;99137.97;;;18.48;49.91
66857;BME280;53766;50.280;19.160;2023-05-25T09:05:42;99139.63;;;18.49;50.21
66857;BME280;53766;50.280;19.160;2023-05-25T09:08:11;99143.28;;;18.48;50.07
66857;BME280;53766;50.280;19.160;2023-05-25T09:10:39;99133.44;;;18.48;50.01
66857;BME280;53766;50.280;19.160;2023-05-25T09:13:07;99133.44;;;18.48;50.12
66857;BME280;53766;50.280;19.160;2023-05-25T09:15:49;99135.13;;;18.49;49.90
66857;BME280;53766;50.280;19.160;2023-05-25T09:18:17;99151.13;;;18.49;50.03
66857;BME280;53766;50.280;19.160;2023-05-25T09:20:44;99151.13;;;18.49;49.99
66857;BME280;53766;50.280;19.160;2023-05-25T09:23:14;99144.97;;;18.49;49.88
66857;BME280;53766;50.280;19.160;2023-05-25T09:25:43;99145.78;;;18.49;49.99
66857;BME280;53766;50.280;19.160;2023-05-25T09:28:10;99155.63;;;18.49;49.90
66857;BME280;53766;50.280;19.160;2023-05-25T09:30:41;99144.13;;;18.48;49.86
66857;BME280;53766;50.280;19.160;2023-05-25T09:33:12;99140.44;;;18.49;49.90
66857;BME280;53766;50.280;19.160;2023-05-25T09:35:40;99143.94;;;18.50;50.01
66857;BME280;53766;50.280;19.160;2023-05-25T09:38:07;99145.78;;;18.49;49.98
66857;BME280;53766;50.280;19.160;2023-05-25T09:40:39;99147.41;;;18.50;50.08
66857;BME280;53766;50.280;19.160;2023-05-25T09:43:07;99155.41;;;18.50;50.08
66857;BME280;53766;50.280;19.160;2023-05-25T09:45:35;99149.09;;;18.52;50.01
66857;BME280;53766;50.280;19.160;2023-05-25T09:48:05;99150.94;;;18.51;50.10
66857;BME280;53766;50.280;19.160;2023-05-25T09:50:34;99143.75;;;18.52;50.12
66857;BME280;53766;50.280;19.160;2023-05-25T09:53:02;99137.59;;;18.51;49.93
66857;BME280;53766;50.280;19.160;2023-05-25T09:55:30;99150.72;;;18.53;49.95
66857;BME280;53766;50.280;19.160;2023-05-25T09:58:17;99143.75;;;18.52;49.91
66857;BME280;53766;50.280;19.160;2023-05-25T10:00:44;99140.06;;;18.53;50.05
66857;BME280;53766;50.280;19.160;2023-05-25T10:03:13;99144.41;;;18.54;50.04
66857;BME280;53766;50.280;19.160;2023-05-25T10:05:42;99144.41;;;18.54;49.95
66857;BME280;53766;50.280;19.160;2023-05-25T10:08:10;99147.88;;;18.54;49.89
66857;BME280;53766;50.280;19.160;2023-05-25T10:10:39;99148.91;;;18.53;49.97
66857;BME280;53766;50.280;19.160;2023-05-25T10:13:07;99146.25;;;18.53;50.02
66857;BME280;53766;50.280;19.160;2023-05-25T10:15:39;99143.56;;;18.53;49.79
66857;BME280;53766;50.280;19.160;2023-05-25T10:18:08;99141.72;;;18.54;50.01
66857;BME280;53766;50.280;19.160;2023-05-25T10:20:36;99148.69;;;18.55;49.95
66857;BME280;53766;50.280;19.160;2023-05-25T10:23:09;99144.41;;;18.54;49.91
66857;BME280;53766;50.280;19.160;2023-05-25T10:25:46;99143.38;;;18.55;50.04
66857;BME280;53766;50.280;19.160;2023-05-25T10:30:43;99150.38;;;18.56;50.02
66857;BME280;53766;50.280;19.160;2023-05-25T10:33:12;99143.38;;;18.55;49.94
66857;BME280;53766;50.280;19.160;2023-05-25T10:35:42;99148.69;;;18.55;49.98
66857;BME280;53766;50.280;19.160;2023-05-25T10:38:29;99148.69;;;18.55;49.93
66857;BME280;53766;50.280;19.160;2023-05-25T10:41:01;99154.84;;;18.55;49.95
66857;BME280;53766;50.280;19.160;2023-05-25T10:43:31;99151.38;;;18.55;49.96
66857;BME280;53766;50.280;19.160;2023-05-25T10:45:58;99148.69;;;18.55;49.98
66857;BME280;53766;50.280;19.160;2023-05-25T10:48:44;99150.38;;;18.56;50.08
66857;BME280;53766;50.280;19.160;2023-05-25T10:51:12;99147.72;;;18.56;49.96
66857;BME280;53766;50.280;19.160;2023-05-25T10:53:44;99148.53;;;18.56;50.06
66857;BME280;53766;50.280;19.160;2023-05-25T10:56:13;99148.34;;;18.58;49.94
66857;BME280;53766;50.280;19.160;2023-05-25T10:58:42;99140.53;;;18.56;50.03
66857;BME280;53766;50.280;19.160;2023-05-25T11:01:12;99138.69;;;18.57;49.99
66857;BME280;53766;50.280;19.160;2023-05-25T11:06:14;99143.00;;;18.58;50.00
66857;BME280;53766;50.280;19.160;2023-05-25T11:08:59;99141.16;;;18.58;49.97
66857;BME280;53766;50.280;19.160;2023-05-25T11:17:10;99142.63;;;18.61;49.95
66857;BME280;53766;50.280;19.160;2023-05-25T11:19:51;99142.63;;;18.61;50.14
66857;BME280;53766;50.280;19.160;2023-05-25T11:22:21;99137.47;;;18.59;50.00
66857;BME280;53766;50.280;19.160;2023-05-25T11:24:50;99135.66;;;18.60;50.05
66857;BME280;53766;50.280;19.160;2023-05-25T11:27:22;99136.28;;;18.62;49.96
66857;BME280;53766;50.280;19.160;2023-05-25T11:29:51;99130.94;;;18.62;49.99
66857;BME280;53766;50.280;19.160;2023-05-25T11:32:19;99126.63;;;18.61;49.90
66857;BME280;53766;50.280;19.160;2023-05-25T11:34:48;99124.97;;;18.60;50.03
66857;BME280;53766;50.280;19.160;2023-05-25T11:37:19;99133.81;;;18.60;49.90
66857;BME280;53766;50.280;19.160;2023-05-25T11:39:50;99124.97;;;18.60;49.86
66857;BME280;53766;50.280;19.160;2023-05-25T11:42:20;99134.44;;;18.62;49.98
66857;BME280;53766;50.280;19.160;2023-05-25T11:44:48;99133.63;;;18.62;50.01
66857;BME280;53766;50.280;19.160;2023-05-25T11:47:19;99133.63;;;18.62;49.95
66857;BME280;53766;50.280;19.160;2023-05-25T11:49:49;99133.63;;;18.62;50.10
66857;BME280;53766;50.280;19.160;2023-05-25T11:52:18;99127.44;;;18.61;50.05
66857;BME280;53766;50.280;19.160;2023-05-25T11:54:46;99130.94;;;18.62;49.82
66857;BME280;53766;50.280;19.160;2023-05-25T11:57:22;99128.06;;;18.63;49.98
66857;BME280;53766;50.280;19.160;2023-05-25T11:59:55;99120.06;;;18.63;49.89
66857;BME280;53766;50.280;19.160;2023-05-25T12:02:23;99113.91;;;18.63;50.04
66857;BME280;53766;50.280;19.160;2023-05-25T12:04:55;99119.25;;;18.63;49.98
66857;BME280;53766;50.280;19.160;2023-05-25T12:07:24;99120.88;;;18.64;49.97
66857;BME280;53766;50.280;19.160;2023-05-25T12:10:13;99110.22;;;18.64;49.94
66857;BME280;53766;50.280;19.160;2023-05-25T12:12:48;99110.84;;;18.66;49.91
66857;BME280;53766;50.280;19.160;2023-05-25T12:15:25;99110.69;;;18.67;49.90
66857;BME280;53766;50.280;19.160;2023-05-25T12:17:53;99100.19;;;18.66;49.99
66857;BME280;53766;50.280;19.160;2023-05-25T12:20:21;99103.72;;;18.66;50.13
66857;BME280;53766;50.280;19.160;2023-05-25T12:22:49;99100.81;;;18.68;49.96
66857;BME280;53766;50.280;19.160;2023-05-25T12:25:20;99100.81;;;18.68;49.97
66857;BME280;53766;50.280;19.160;2023-05-25T12:28:11;99100.81;;;18.68;49.94
66857;BME280;53766;50.280;19.160;2023-05-25T12:30:39;99101.66;;;18.68;50.05
66857;BME280;53766;50.280;19.160;2023-05-25T12:33:07;99099.81;;;18.69;50.01
66857;BME280;53766;50.280;19.160;2023-05-25T12:35:45;99093.47;;;18.70;49.87
66857;BME280;53766;50.280;19.160;2023-05-25T12:38:16;99098.78;;;18.70;50.14
66857;BME280;53766;50.280;19.160;2023-05-25T12:40:44;99094.31;;;18.70;50.19
66857;BME280;53766;50.280;19.160;2023-05-25T12:43:13;99094.31;;;18.70;50.02
66857;BME280;53766;50.280;19.160;2023-05-25T12:45:41;99088.97;;;18.70;50.08
66857;BME280;53766;50.280;19.160;2023-05-25T12:48:09;99090.59;;;18.71;50.04
66857;BME280;53766;50.280;19.160;2023-05-25T12:50:38;99095.13;;;18.71;50.14
66857;BME280;53766;50.280;19.160;2023-05-25T12:53:05;99097.78;;;18.71;50.22
66857;BME280;53766;50.280;19.160;2023-05-25T12:55:33;99092.47;;;18.71;50.13
66857;BME280;53766;50.280;19.160;2023-05-25T12:58:04;99092.47;;;18.71;50.15
66857;BME280;53766;50.280;19.160;2023-05-25T13:00:37;99095.13;;;18.71;50.21
66857;BME280;53766;50.280;19.160;2023-05-25T13:03:05;99095.13;;;18.71;50.09
66857;BME280;53766;50.280;19.160;2023-05-25T13:05:36;99096.13;;;18.70;50.17
66857;BME280;53766;50.280;19.160;2023-05-25T13:08:05;99091.81;;;18.69;50.31
66857;BME280;53766;50.280;19.160;2023-05-25T13:10:35;99090.78;;;18.70;50.31
66857;BME280;53766;50.280;19.160;2023-05-25T13:13:02;99098.78;;;18.70;50.35